Lay, Colorado
Current Conditions -  °F | °C
As of 5:20 PM on Saturday 20 Dec 2014 (Local Time) from KCAG Reporting Station
Light Snow Light Snow  
Wind Chill: 29°   Ceiling: 1400
Heat Index: 29°   Visibility: 1mi
Dew Point: 26°   Wind: 3mph
Humidity: 89%   Direction: 80°E
Pressure: 30.06"   Gusts: NA
Location:  40.7169°N, 107.713°W
Report Text: KCAG 210020Z AUTO 08003KT 1SM -SN BR VV014 M02/M03 A3006 RMK AO2 P0002 T10171033
Loading
Personal Weather Stations






























Interactive Weather Map New forecast layout! Learn more

10-Day Weather Forecast

Advertisements
Track Severe Weather on mobile